Time,TemperatureF,DewpointF,PressureIn,WindDirection,WindDirectionDegrees,WindSpeedMPH,WindSpeedGustMPH,Humidity,HourlyPrecipIn,Conditions,Clouds,dailyrainin,SoftwareType,DateUTC
2013-01-14 00:00:00,29.7,29.7,30.11,East,99,0.0,0.0,100,0.00,,,0.00,Wunderground v.1.12,2013-01-14 08:00:00,
2013-01-14 00:10:00,30.3,30.3,30.11,SE,128,1.0,1.0,100,0.00,,,0.00,Wunderground v.1.12,2013-01-14 08:10:00,
2013-01-14 00:20:00,30.3,30.3,30.11,SE,144,0.0,0.0,100,0.00,,,0.00,Wunderground v.1.12,2013-01-14 08:20:00,
2013-01-14 00:30:00,30.0,30.0,30.11,SSE,153,0.0,0.0,100,0.00,,,0.00,Wunderground v.1.12,2013-01-14 08:30:00,
2013-01-14 00:40:00,30.0,30.0,30.11,SE,136,0.0,0.0,100,0.00,,,0.00,Wunderground v.1.12,2013-01-14 08:40:00,
2013-01-14 00:50:00,30.3,30.3,30.12,East,92,1.0,1.0,100,0.00,,,0.00,Wunderground v.1.12,2013-01-14 08:50:00,
2013-01-14 01:00:00,30.1,30.1,30.12,NE,56,0.0,0.0,100,0.00,,,0.00,Wunderground v.1.12,2013-01-14 09:00:00,
2013-01-14 01:10:00,30.0,30.0,30.13,SE,144,0.0,0.0,100,0.00,,,0.00,Wunderground v.1.12,2013-01-14 09:10:00,
2013-01-14 01:20:00,29.7,29.7,30.13,ESE,115,1.0,1.0,100,0.00,,,0.00,Wunderground v.1.12,2013-01-14 09:20:00,
2013-01-14 01:30:00,30.0,30.0,30.13,ESE,121,2.0,4.0,100,0.00,,,0.00,Wunderground v.1.12,2013-01-14 09:30:00,
2013-01-14 01:40:00,30.0,30.0,30.14,ESE,116,1.0,4.0,100,0.00,,,0.00,Wunderground v.1.12,2013-01-14 09:40:00,
2013-01-14 01:50:00,29.5,29.5,30.14,SE,133,2.0,2.0,100,0.00,,,0.00,Wunderground v.1.12,2013-01-14 09:50:00,
2013-01-14 02:00:00,29.7,29.7,30.14,SE,126,1.0,6.0,100,0.00,,,0.00,Wunderground v.1.12,2013-01-14 10:00:00,
2013-01-14 02:10:00,30.4,30.4,30.14,SE,133,3.0,3.0,100,0.00,,,0.00,Wunderground v.1.12,2013-01-14 10:10:00,
2013-01-14 02:20:00,30.1,30.1,30.14,SSW,194,1.0,1.0,100,0.00,,,0.00,Wunderground v.1.12,2013-01-14 10:20:00,
2013-01-14 02:30:00,30.0,30.0,30.14,South,171,1.0,1.0,100,0.00,,,0.00,Wunderground v.1.12,2013-01-14 10:30:00,
2013-01-14 02:40:00,30.1,30.1,30.15,SSE,150,1.0,6.0,100,0.00,,,0.00,Wunderground v.1.12,2013-01-14 10:40:00,
2013-01-14 02:50:00,30.6,30.6,30.15,SSE,166,1.0,1.0,100,0.00,,,0.00,Wunderground v.1.12,2013-01-14 10:50:00,
2013-01-14 03:00:00,30.3,30.3,30.15,South,169,0.0,0.0,100,0.00,,,0.00,Wunderground v.1.12,2013-01-14 11:00:00,
2013-01-14 03:10:00,30.4,30.4,30.15,South,188,1.0,1.0,100,0.00,,,0.00,Wunderground v.1.12,2013-01-14 11:10:00,
2013-01-14 03:20:00,29.8,29.8,30.16,SE,130,0.0,1.0,100,0.00,,,0.00,Wunderground v.1.12,2013-01-14 11:20:00,
2013-01-14 03:30:00,29.8,29.8,30.16,SE,138,3.0,3.0,100,0.00,,,0.00,Wunderground v.1.12,2013-01-14 11:30:00,
2013-01-14 03:40:00,30.9,30.9,30.16,ENE,71,4.0,4.0,100,0.00,,,0.00,Wunderground v.1.12,2013-01-14 11:40:00,
2013-01-14 03:50:00,30.3,30.3,30.16,SE,132,3.0,6.0,100,0.00,,,0.00,Wunderground v.1.12,2013-01-14 11:50:00,
2013-01-14 04:00:00,30.4,30.4,30.16,NE,55,3.0,3.0,100,0.00,,,0.00,Wunderground v.1.12,2013-01-14 12:00:00,
2013-01-14 04:10:00,29.8,29.8,30.16,SSE,153,1.0,2.0,100,0.00,,,0.00,Wunderground v.1.12,2013-01-14 12:10:00,
2013-01-14 04:20:00,31.2,31.2,30.16,SSE,148,3.0,3.0,100,0.00,,,0.00,Wunderground v.1.12,2013-01-14 12:20:00,
2013-01-14 04:30:00,30.4,30.4,30.16,SE,129,1.0,1.0,100,0.00,,,0.00,Wunderground v.1.12,2013-01-14 12:30:00,
2013-01-14 04:40:00,29.7,29.7,30.16,SE,129,0.0,0.0,100,0.00,,,0.00,Wunderground v.1.12,2013-01-14 12:40:00,
2013-01-14 04:50:00,29.3,29.3,30.17,SE,128,0.0,0.0,100,0.00,,,0.00,Wunderground v.1.12,2013-01-14 12:50:00,
2013-01-14 05:00:00,29.3,29.3,30.17,SE,133,0.0,0.0,100,0.00,,,0.00,Wunderground v.1.12,2013-01-14 13:00:00,
2013-01-14 05:10:00,29.0,29.0,30.18,SE,132,0.0,0.0,100,0.00,,,0.00,Wunderground v.1.12,2013-01-14 13:10:00,
2013-01-14 05:20:00,28.5,28.5,30.18,SE,131,0.0,1.0,100,0.00,,,0.00,Wunderground v.1.12,2013-01-14 13:20:00,
2013-01-14 05:30:00,27.6,27.6,30.18,East,94,0.0,0.0,100,0.00,,,0.00,Wunderground v.1.12,2013-01-14 13:30:00,
2013-01-14 05:40:00,27.6,27.6,30.18,East,94,0.0,0.0,100,0.00,,,0.00,Wunderground v.1.12,2013-01-14 13:40:00,
2013-01-14 05:50:00,27.0,27.0,30.20,East,94,0.0,0.0,100,0.00,,,0.00,Wunderground v.1.12,2013-01-14 13:50:00,
2013-01-14 06:00:00,26.6,26.6,30.20,East,93,0.0,0.0,100,0.00,,,0.00,Wunderground v.1.12,2013-01-14 14:00:00,
2013-01-14 06:10:00,26.1,26.1,30.21,East,94,0.0,0.0,100,0.00,,,0.00,Wunderground v.1.12,2013-01-14 14:10:00,
2013-01-14 06:20:00,25.6,25.6,30.22,East,94,0.0,0.0,100,0.00,,,0.00,Wunderground v.1.12,2013-01-14 14:20:00,
2013-01-14 06:30:00,25.6,25.6,30.22,East,94,0.0,2.0,100,0.00,,,0.00,Wunderground v.1.12,2013-01-14 14:30:00,
2013-01-14 06:40:00,26.3,26.3,30.23,East,99,0.0,0.0,100,0.00,,,0.00,Wunderground v.1.12,2013-01-14 14:40:00,
2013-01-14 06:50:00,26.1,26.1,30.23,East,99,0.0,0.0,100,0.00,,,0.00,Wunderground v.1.12,2013-01-14 14:50:00,
2013-01-14 07:00:00,26.0,26.0,30.23,NE,41,0.0,0.0,100,0.00,,,0.00,Wunderground v.1.12,2013-01-14 15:00:00,
2013-01-14 07:10:00,25.8,25.8,30.25,NE,40,0.0,0.0,100,0.00,,,0.00,Wunderground v.1.12,2013-01-14 15:10:00,
2013-01-14 07:20:00,25.6,25.6,30.25,NNW,328,0.0,0.0,100,0.00,,,0.00,Wunderground v.1.12,2013-01-14 15:20:00,
2013-01-14 07:30:00,25.4,25.4,30.25,NNW,328,0.0,0.0,100,0.00,,,0.00,Wunderground v.1.12,2013-01-14 15:30:00,
2013-01-14 07:40:00,25.3,25.3,30.25,NNW,328,0.0,0.0,100,0.00,,,0.00,Wunderground v.1.12,2013-01-14 15:40:00,
2013-01-14 07:50:00,25.1,25.1,30.26,NNW,328,0.0,0.0,100,0.00,,,0.00,Wunderground v.1.12,2013-01-14 15:50:00,
2013-01-14 08:00:00,25.4,25.4,30.26,NNW,328,0.0,0.0,100,0.00,,,0.00,Wunderground v.1.12,2013-01-14 16:00:00,
2013-01-14 08:10:00,25.4,25.4,30.27,NNW,328,0.0,0.0,100,0.00,,,0.00,Wunderground v.1.12,2013-01-14 16:10:00,
2013-01-14 08:20:00,25.6,25.6,30.26,NNW,328,0.0,0.0,100,0.00,,,0.00,Wunderground v.1.12,2013-01-14 16:20:00,
2013-01-14 08:30:00,27.0,27.0,30.26,NNW,328,0.0,0.0,100,0.00,,,0.00,Wunderground v.1.12,2013-01-14 16:30:00,
2013-01-14 08:40:00,28.2,28.2,30.27,NNW,331,0.0,0.0,100,0.00,,,0.00,Wunderground v.1.12,2013-01-14 16:40:00,
2013-01-14 08:50:00,29.1,29.1,30.28,NNE,19,0.0,0.0,100,0.00,,,0.00,Wunderground v.1.12,2013-01-14 16:50:00,
2013-01-14 09:00:00,30.1,30.1,30.28,NNE,20,0.0,0.0,100,0.00,,,0.00,Wunderground v.1.12,2013-01-14 17:00:00,
2013-01-14 09:10:00,32.5,32.5,30.29,NNE,20,0.0,0.0,100,0.00,,,0.00,Wunderground v.1.12,2013-01-14 17:10:00,
2013-01-14 09:20:00,35.0,35.0,30.29,NNE,20,0.0,0.0,100,0.00,,,0.00,Wunderground v.1.12,2013-01-14 17:20:00,
2013-01-14 09:30:00,37.2,37.2,30.29,NNE,20,0.0,0.0,100,0.00,,,0.00,Wunderground v.1.12,2013-01-14 17:30:00,
2013-01-14 09:40:00,38.6,38.6,30.29,NNE,20,0.0,0.0,100,0.00,,,0.00,Wunderground v.1.12,2013-01-14 17:40:00,
2013-01-14 09:50:00,40.1,40.1,30.29,NNE,20,0.0,0.0,100,0.00,,,0.00,Wunderground v.1.12,2013-01-14 17:50:00,
2013-01-14 10:00:00,41.5,41.5,30.29,NNE,20,0.0,0.0,100,0.00,,,0.00,Wunderground v.1.12,2013-01-14 18:00:00,
2013-01-14 10:10:00,41.1,41.1,30.29,NE,45,0.0,0.0,100,0.00,,,0.00,Wunderground v.1.12,2013-01-14 18:10:00,
2013-01-14 10:20:00,41.1,41.1,30.29,NE,51,0.0,0.0,100,0.00,,,0.00,Wunderground v.1.12,2013-01-14 18:20:00,
2013-01-14 10:30:00,42.5,42.5,30.29,NE,50,0.0,2.0,100,0.00,,,0.00,Wunderground v.1.12,2013-01-14 18:30:00,
2013-01-14 10:40:00,44.1,44.1,30.29,NE,49,0.0,0.0,100,0.00,,,0.00,Wunderground v.1.12,2013-01-14 18:40:00,
2013-01-14 10:50:00,45.7,45.7,30.29,NE,49,0.0,0.0,100,0.00,,,0.00,Wunderground v.1.12,2013-01-14 18:50:00,
2013-01-14 11:00:00,47.3,47.3,30.29,NE,49,0.0,0.0,100,0.00,,,0.00,Wunderground v.1.12,2013-01-14 19:00:00,
2013-01-14 11:10:00,49.4,49.4,30.29,NE,49,0.0,0.0,100,0.00,,,0.00,Wunderground v.1.12,2013-01-14 19:10:00,
2013-01-14 11:20:00,50.4,50.4,30.29,NNE,16,0.0,0.0,100,0.00,,,0.00,Wunderground v.1.12,2013-01-14 19:20:00,
2013-01-14 11:30:00,49.6,49.6,30.29,NE,47,2.0,2.0,100,0.00,,,0.00,Wunderground v.1.12,2013-01-14 19:30:00,
2013-01-14 11:40:00,49.5,49.5,30.28,NE,49,3.0,4.0,100,0.00,,,0.00,Wunderground v.1.12,2013-01-14 19:40:00,
2013-01-14 11:50:00,50.2,50.2,30.27,NNE,27,2.0,4.0,100,0.00,,,0.00,Wunderground v.1.12,2013-01-14 19:50:00,
2013-01-14 12:00:00,50.2,50.2,30.27,ENE,61,3.0,3.0,100,0.00,,,0.00,Wunderground v.1.12,2013-01-14 20:00:00,
2013-01-14 12:10:00,51.0,51.0,30.26,ENE,57,2.0,3.0,100,0.00,,,0.00,Wunderground v.1.12,2013-01-14 20:10:00,
2013-01-14 12:20:00,51.3,51.3,30.25,NNW,340,1.0,5.0,100,0.00,,,0.00,Wunderground v.1.12,2013-01-14 20:20:00,
2013-01-14 12:30:00,51.6,51.6,30.25,WSW,248,1.0,1.0,100,0.00,,,0.00,Wunderground v.1.12,2013-01-14 20:30:00,
2013-01-14 12:40:00,52.5,52.5,30.25,North,350,0.0,3.0,100,0.00,,,0.00,Wunderground v.1.12,2013-01-14 20:40:00,
2013-01-14 12:50:00,52.0,52.0,30.24,WNW,285,1.0,1.0,100,0.00,,,0.00,Wunderground v.1.12,2013-01-14 20:50:00,
2013-01-14 13:00:00,53.2,53.2,30.24,NE,51,0.0,0.0,100,0.00,,,0.00,Wunderground v.1.12,2013-01-14 21:00:00,
2013-01-14 13:10:00,52.8,52.8,30.24,ESE,121,1.0,2.0,100,0.00,,,0.00,Wunderground v.1.12,2013-01-14 21:10:00,
2013-01-14 13:20:00,52.9,52.9,30.24,ESE,103,1.0,1.0,100,0.00,,,0.00,Wunderground v.1.12,2013-01-14 21:20:00,
2013-01-14 13:30:00,53.9,53.9,30.24,ESE,102,0.0,0.0,100,0.00,,,0.00,Wunderground v.1.12,2013-01-14 21:30:00,
2013-01-14 13:40:00,53.9,53.9,30.24,East,81,1.0,1.0,100,0.00,,,0.00,Wunderground v.1.12,2013-01-14 21:40:00,
2013-01-14 13:50:00,53.3,53.3,30.24,East,81,1.0,1.0,100,0.00,,,0.00,Wunderground v.1.12,2013-01-14 21:50:00,
2013-01-14 14:00:00,53.6,53.6,30.24,NNW,328,1.0,1.0,100,0.00,,,0.00,Wunderground v.1.12,2013-01-14 22:00:00,
2013-01-14 14:10:00,54.2,54.2,30.25,ENE,77,1.0,1.0,100,0.00,,,0.00,Wunderground v.1.12,2013-01-14 22:10:00,
2013-01-14 14:20:00,54.1,54.1,30.25,NE,52,2.0,4.0,100,0.00,,,0.00,Wunderground v.1.12,2013-01-14 22:20:00,
2013-01-14 14:30:00,53.8,53.8,30.25,NNE,33,3.0,3.0,100,0.00,,,0.00,Wunderground v.1.12,2013-01-14 22:30:00,
2013-01-14 14:40:00,53.6,53.6,30.25,ENE,68,3.0,3.0,100,0.00,,,0.00,Wunderground v.1.12,2013-01-14 22:40:00,
2013-01-14 14:50:00,53.5,53.5,30.25,East,88,2.0,2.0,100,0.00,,,0.00,Wunderground v.1.12,2013-01-14 22:50:00,
2013-01-14 15:00:00,53.9,53.9,30.25,ENE,63,1.0,3.0,100,0.00,,,0.00,Wunderground v.1.12,2013-01-14 23:00:00,
2013-01-14 15:10:00,53.8,53.8,30.25,NE,41,2.0,2.0,100,0.00,,,0.00,Wunderground v.1.12,2013-01-14 23:10:00,
2013-01-14 15:20:00,54.2,54.2,30.26,ENE,58,0.0,0.0,100,0.00,,,0.00,Wunderground v.1.12,2013-01-14 23:20:00,
2013-01-14 15:30:00,55.1,55.1,30.26,West,262,0.0,2.0,100,0.00,,,0.00,Wunderground v.1.12,2013-01-14 23:30:00,
2013-01-14 15:40:00,54.8,54.8,30.26,SW,216,2.0,7.0,100,0.00,,,0.00,Wunderground v.1.12,2013-01-14 23:40:00,
2013-01-14 15:50:00,53.2,53.2,30.26,SW,235,5.0,5.0,100,0.00,,,0.00,Wunderground v.1.12,2013-01-14 23:50:00,
2013-01-14 16:00:00,53.3,53.3,30.26,WSW,246,2.0,4.0,100,0.00,,,0.00,Wunderground v.1.12,2013-01-15 00:00:00,
2013-01-14 16:10:00,52.8,52.8,30.26,SW,234,2.0,6.0,100,0.00,,,0.00,Wunderground v.1.12,2013-01-15 00:10:00,
2013-01-14 16:20:00,52.8,52.8,30.26,WSW,250,1.0,1.0,100,0.00,,,0.00,Wunderground v.1.12,2013-01-15 00:20:00,
2013-01-14 16:30:00,51.9,51.9,30.26,WNW,296,2.0,2.0,100,0.00,,,0.00,Wunderground v.1.12,2013-01-15 00:30:00,
2013-01-14 16:40:00,50.7,50.7,30.26,WNW,297,1.0,1.0,100,0.00,,,0.00,Wunderground v.1.12,2013-01-15 00:40:00,
2013-01-14 16:50:00,49.9,49.9,30.26,WNW,290,1.0,1.0,100,0.00,,,0.00,Wunderground v.1.12,2013-01-15 00:50:00,
2013-01-14 17:00:00,48.5,48.5,30.26,WNW,283,0.0,0.0,100,0.00,,,0.00,Wunderground v.1.12,2013-01-15 01:00:00,
2013-01-14 17:10:00,46.8,46.8,30.26,WNW,285,0.0,0.0,100,0.00,,,0.00,Wunderground v.1.12,2013-01-15 01:10:00,
2013-01-14 17:20:00,45.5,45.5,30.26,WNW,285,0.0,0.0,100,0.00,,,0.00,Wunderground v.1.12,2013-01-15 01:20:00,
2013-01-14 17:30:00,44.3,44.3,30.26,South,185,0.0,0.0,100,0.00,,,0.00,Wunderground v.1.12,2013-01-15 01:30:00,
2013-01-14 17:40:00,43.1,43.1,30.26,South,186,0.0,0.0,100,0.00,,,0.00,Wunderground v.1.12,2013-01-15 01:40:00,
2013-01-14 17:50:00,42.3,42.3,30.26,South,186,0.0,0.0,100,0.00,,,0.00,Wunderground v.1.12,2013-01-15 01:50:00,
2013-01-14 18:00:00,41.3,41.3,30.26,South,186,0.0,0.0,100,0.00,,,0.00,Wunderground v.1.12,2013-01-15 02:00:00,
2013-01-14 18:10:00,40.1,40.1,30.27,South,186,0.0,0.0,100,0.00,,,0.00,Wunderground v.1.12,2013-01-15 02:10:00,
2013-01-14 18:20:00,38.0,38.0,30.26,South,180,0.0,1.0,100,0.00,,,-99.99,WeatherLink 5.8.2,2013-01-15 02:20:00,
2013-01-14 18:30:00,37.3,37.3,30.26,South,186,0.0,0.0,100,0.00,,,0.00,Wunderground v.1.12,2013-01-15 02:30:00,
2013-01-14 18:40:00,36.9,36.9,30.27,South,186,0.0,0.0,100,0.00,,,0.00,Wunderground v.1.12,2013-01-15 02:40:00,
2013-01-14 18:50:00,37.0,37.0,30.26,South,186,0.0,0.0,100,0.00,,,0.00,Wunderground v.1.12,2013-01-15 02:50:00,
2013-01-14 19:00:00,36.8,36.8,30.26,South,185,0.0,0.0,100,0.00,,,0.00,Wunderground v.1.12,2013-01-15 03:00:00,
2013-01-14 19:10:00,36.2,36.2,30.26,South,186,0.0,0.0,100,0.00,,,0.00,Wunderground v.1.12,2013-01-15 03:10:00,
2013-01-14 19:20:00,35.5,35.5,30.27,East,90,0.0,0.0,100,0.00,,,0.00,Wunderground v.1.12,2013-01-15 03:20:00,
2013-01-14 19:30:00,34.7,34.7,30.27,ENE,63,0.0,0.0,100,0.00,,,0.00,Wunderground v.1.12,2013-01-15 03:30:00,
2013-01-14 19:40:00,35.2,35.2,30.27,ENE,63,0.0,0.0,100,0.00,,,0.00,Wunderground v.1.12,2013-01-15 03:40:00,
2013-01-14 19:50:00,35.0,35.0,30.27,ENE,63,0.0,0.0,100,0.00,,,0.00,Wunderground v.1.12,2013-01-15 03:50:00,
2013-01-14 20:00:00,35.0,35.0,30.27,ENE,63,0.0,0.0,100,0.00,,,0.00,Wunderground v.1.12,2013-01-15 04:00:00,
2013-01-14 20:10:00,34.7,34.7,30.27,East,82,0.0,0.0,100,0.00,,,0.00,Wunderground v.1.12,2013-01-15 04:10:00,
2013-01-14 20:20:00,34.0,34.0,30.27,East,82,0.0,0.0,100,0.00,,,0.00,Wunderground v.1.12,2013-01-15 04:20:00,
2013-01-14 20:30:00,33.7,33.7,30.27,East,82,0.0,0.0,100,0.00,,,0.00,Wunderground v.1.12,2013-01-15 04:30:00,
2013-01-14 20:40:00,33.4,33.4,30.27,East,82,0.0,0.0,100,0.00,,,0.00,Wunderground v.1.12,2013-01-15 04:40:00,
2013-01-14 20:50:00,32.7,32.7,30.27,East,82,0.0,0.0,100,0.00,,,0.00,Wunderground v.1.12,2013-01-15 04:50:00,
2013-01-14 21:00:00,32.2,32.2,30.26,North,-999,0.0,0.0,100,0.00,,,-99.99,WeatherLink 5.8.2,2013-01-15 05:00:00,
2013-01-14 21:03:00,32.2,32.2,30.27,North,-999,0.0,0.0,100,0.00,,,-99.99,WeatherLink 5.8.2,2013-01-15 05:03:00,
2013-01-14 21:10:00,32.2,32.2,30.26,East,81,0.0,0.0,100,0.00,,,0.00,Wunderground v.1.12,2013-01-15 05:10:00,
2013-01-14 21:20:00,31.9,31.9,30.26,East,82,0.0,0.0,100,0.00,,,0.00,Wunderground v.1.12,2013-01-15 05:20:00,
2013-01-14 21:30:00,31.5,31.5,30.26,ENE,65,0.0,0.0,100,0.00,,,0.00,Wunderground v.1.12,2013-01-15 05:30:00,
2013-01-14 21:40:00,31.3,31.3,30.26,ENE,65,0.0,0.0,100,0.00,,,0.00,Wunderground v.1.12,2013-01-15 05:40:00,
2013-01-14 21:50:00,31.3,31.3,30.27,ENE,65,0.0,0.0,100,0.00,,,0.00,Wunderground v.1.12,2013-01-15 05:50:00,
2013-01-14 22:00:00,31.0,31.0,30.27,ENE,65,0.0,0.0,100,0.00,,,0.00,Wunderground v.1.12,2013-01-15 06:00:00,
2013-01-14 22:10:00,30.7,30.7,30.26,ENE,65,0.0,0.0,100,0.00,,,0.00,Wunderground v.1.12,2013-01-15 06:10:00,
2013-01-14 22:20:00,30.7,30.7,30.26,ENE,65,0.0,0.0,100,0.00,,,0.00,Wunderground v.1.12,2013-01-15 06:20:00,
2013-01-14 22:30:00,30.4,30.4,30.26,ENE,65,0.0,0.0,100,0.00,,,0.00,Wunderground v.1.12,2013-01-15 06:30:00,
2013-01-14 22:40:00,30.4,30.4,30.26,ENE,65,0.0,0.0,100,0.00,,,0.00,Wunderground v.1.12,2013-01-15 06:40:00,
2013-01-14 22:50:00,30.1,30.1,30.27,ENE,65,0.0,0.0,100,0.00,,,0.00,Wunderground v.1.12,2013-01-15 06:50:00,
2013-01-14 23:00:00,30.0,30.0,30.27,ENE,65,0.0,0.0,100,0.00,,,0.00,Wunderground v.1.12,2013-01-15 07:00:00,
2013-01-14 23:10:00,30.0,30.0,30.28,ENE,65,0.0,0.0,100,0.00,,,0.00,Wunderground v.1.12,2013-01-15 07:10:00,
2013-01-14 23:20:00,29.8,29.8,30.27,ENE,65,0.0,0.0,100,0.00,,,0.00,Wunderground v.1.12,2013-01-15 07:20:00,
2013-01-14 23:30:00,29.8,29.8,30.27,ENE,65,0.0,0.0,100,0.00,,,0.00,Wunderground v.1.12,2013-01-15 07:30:00,
2013-01-14 23:40:00,29.5,29.5,30.27,ENE,65,0.0,0.0,100,0.00,,,0.00,Wunderground v.1.12,2013-01-15 07:40:00,
2013-01-14 23:50:00,29.4,29.4,30.27,ENE,65,0.0,0.0,100,0.00,,,0.00,Wunderground v.1.12,2013-01-15 07:50:00,